sensor_id;sensor_type;location;lat;lon;timestamp;temperature;humidity
35668;DHT22;22158;59.280;17.806;2023-05-14T05:02:07;10.60;99.90
35668;DHT22;22158;59.280;17.806;2023-05-14T05:04:33;10.70;99.90
35668;DHT22;22158;59.280;17.806;2023-05-14T05:06:59;10.80;99.90
35668;DHT22;22158;59.280;17.806;2023-05-14T05:09:24;10.90;99.90
35668;DHT22;22158;59.280;17.806;2023-05-14T05:11:50;11.00;99.90
35668;DHT22;22158;59.280;17.806;2023-05-14T05:14:16;11.10;99.90
35668;DHT22;22158;59.280;17.806;2023-05-14T05:16:41;11.20;99.90
35668;DHT22;22158;59.280;17.806;2023-05-14T05:19:07;11.30;99.90
35668;DHT22;22158;59.280;17.806;2023-05-14T05:21:33;11.30;99.90
35668;DHT22;22158;59.280;17.806;2023-05-14T05:23:58;11.40;99.90
35668;DHT22;22158;59.280;17.806;2023-05-14T05:26:25;11.50;99.90
35668;DHT22;22158;59.280;17.806;2023-05-14T05:28:51;11.60;99.90
35668;DHT22;22158;59.280;17.806;2023-05-14T05:31:16;11.60;99.90
35668;DHT22;22158;59.280;17.806;2023-05-14T05:33:42;11.70;99.90
35668;DHT22;22158;59.280;17.806;2023-05-14T05:36:08;11.80;99.90
35668;DHT22;22158;59.280;17.806;2023-05-14T05:38:34;11.90;99.90
35668;DHT22;22158;59.280;17.806;2023-05-14T05:40:59;12.10;99.90
35668;DHT22;22158;59.280;17.806;2023-05-14T05:43:25;12.20;99.90
35668;DHT22;22158;59.280;17.806;2023-05-14T05:45:50;12.30;99.90
35668;DHT22;22158;59.280;17.806;2023-05-14T05:48:16;12.30;99.90
35668;DHT22;22158;59.280;17.806;2023-05-14T05:50:41;12.50;99.90
35668;DHT22;22158;59.280;17.806;2023-05-14T05:53:09;12.50;99.90
35668;DHT22;22158;59.280;17.806;2023-05-14T05:55:34;12.60;99.90
35668;DHT22;22158;59.280;17.806;2023-05-14T05:58:00;12.70;99.90
35668;DHT22;22158;59.280;17.806;2023-05-14T06:00:26;12.90;99.90
35668;DHT22;22158;59.280;17.806;2023-05-14T06:02:51;13.00;99.90
35668;DHT22;22158;59.280;17.806;2023-05-14T06:05:17;13.10;99.90
35668;DHT22;22158;59.280;17.806;2023-05-14T06:07:43;13.20;99.30
35668;DHT22;22158;59.280;17.806;2023-05-14T06:10:09;13.30;99.20
35668;DHT22;22158;59.280;17.806;2023-05-14T06:12:35;13.40;99.00
35668;DHT22;22158;59.280;17.806;2023-05-14T06:15:00;13.60;99.10
35668;DHT22;22158;59.280;17.806;2023-05-14T06:17:26;13.70;98.40
35668;DHT22;22158;59.280;17.806;2023-05-14T06:19:52;13.80;98.50
35668;DHT22;22158;59.280;17.806;2023-05-14T06:22:18;13.80;98.00
35668;DHT22;22158;59.280;17.806;2023-05-14T06:24:44;13.90;97.70
35668;DHT22;22158;59.280;17.806;2023-05-14T06:27:10;14.00;97.60
35668;DHT22;22158;59.280;17.806;2023-05-14T06:29:36;14.20;97.30
35668;DHT22;22158;59.280;17.806;2023-05-14T06:32:03;14.30;97.50
35668;DHT22;22158;59.280;17.806;2023-05-14T06:34:29;14.40;97.50
35668;DHT22;22158;59.280;17.806;2023-05-14T06:36:55;14.50;97.80
35668;DHT22;22158;59.280;17.806;2023-05-14T06:39:21;14.70;97.00
35668;DHT22;22158;59.280;17.806;2023-05-14T06:41:47;14.90;96.40
35668;DHT22;22158;59.280;17.806;2023-05-14T06:44:13;15.00;96.60
35668;DHT22;22158;59.280;17.806;2023-05-14T06:46:38;15.10;95.90
35668;DHT22;22158;59.280;17.806;2023-05-14T06:49:04;15.30;95.40
35668;DHT22;22158;59.280;17.806;2023-05-14T06:51:29;15.40;95.40
35668;DHT22;22158;59.280;17.806;2023-05-14T06:53:55;15.40;95.20
35668;DHT22;22158;59.280;17.806;2023-05-14T06:56:21;15.50;95.60
35668;DHT22;22158;59.280;17.806;2023-05-14T06:58:47;15.60;96.10
35668;DHT22;22158;59.280;17.806;2023-05-14T07:01:12;15.60;95.90
35668;DHT22;22158;59.280;17.806;2023-05-14T07:03:38;15.70;95.90
35668;DHT22;22158;59.280;17.806;2023-05-14T07:06:04;15.70;95.40
35668;DHT22;22158;59.280;17.806;2023-05-14T07:08:31;15.90;95.40
35668;DHT22;22158;59.280;17.806;2023-05-14T07:10:56;16.10;95.50
35668;DHT22;22158;59.280;17.806;2023-05-14T07:13:22;16.10;95.10
35668;DHT22;22158;59.280;17.806;2023-05-14T07:15:48;16.30;93.60
35668;DHT22;22158;59.280;17.806;2023-05-14T07:18:15;16.40;92.70
35668;DHT22;22158;59.280;17.806;2023-05-14T07:20:41;16.60;93.20
35668;DHT22;22158;59.280;17.806;2023-05-14T07:23:06;16.70;92.20
35668;DHT22;22158;59.280;17.806;2023-05-14T07:25:32;16.80;91.90
35668;DHT22;22158;59.280;17.806;2023-05-14T07:27:58;17.00;91.40
35668;DHT22;22158;59.280;17.806;2023-05-14T07:30:23;17.20;91.50
35668;DHT22;22158;59.280;17.806;2023-05-14T07:32:49;17.40;91.00
35668;DHT22;22158;59.280;17.806;2023-05-14T07:35:14;17.50;91.30
35668;DHT22;22158;59.280;17.806;2023-05-14T07:37:40;17.60;90.90
35668;DHT22;22158;59.280;17.806;2023-05-14T07:40:07;17.70;90.90
35668;DHT22;22158;59.280;17.806;2023-05-14T07:42:33;17.80;90.70
35668;DHT22;22158;59.280;17.806;2023-05-14T07:44:59;17.90;91.10
35668;DHT22;22158;59.280;17.806;2023-05-14T07:47:24;18.00;90.20
35668;DHT22;22158;59.280;17.806;2023-05-14T07:49:53;18.20;87.60
35668;DHT22;22158;59.280;17.806;2023-05-14T07:52:19;18.30;87.20
35668;DHT22;22158;59.280;17.806;2023-05-14T07:54:45;18.50;85.70
35668;DHT22;22158;59.280;17.806;2023-05-14T07:57:10;18.50;84.90
35668;DHT22;22158;59.280;17.806;2023-05-14T07:59:36;18.60;86.00
35668;DHT22;22158;59.280;17.806;2023-05-14T08:02:01;18.70;86.30
35668;DHT22;22158;59.280;17.806;2023-05-14T08:04:27;18.90;85.00
35668;DHT22;22158;59.280;17.806;2023-05-14T08:06:53;19.00;85.50
35668;DHT22;22158;59.280;17.806;2023-05-14T08:09:19;19.10;89.20
35668;DHT22;22158;59.280;17.806;2023-05-14T08:11:45;19.10;83.60
35668;DHT22;22158;59.280;17.806;2023-05-14T08:14:10;19.30;81.60
35668;DHT22;22158;59.280;17.806;2023-05-14T08:16:36;19.40;84.80
35668;DHT22;22158;59.280;17.806;2023-05-14T08:19:03;19.60;81.50
35668;DHT22;22158;59.280;17.806;2023-05-14T08:21:28;19.80;81.70
35668;DHT22;22158;59.280;17.806;2023-05-14T08:23:54;20.00;81.10
35668;DHT22;22158;59.280;17.806;2023-05-14T08:26:20;20.10;79.40
35668;DHT22;22158;59.280;17.806;2023-05-14T08:28:46;20.10;79.10
35668;DHT22;22158;59.280;17.806;2023-05-14T08:31:11;20.20;80.50
35668;DHT22;22158;59.280;17.806;2023-05-14T08:33:39;20.40;79.30
35668;DHT22;22158;59.280;17.806;2023-05-14T08:36:05;20.50;76.70
35668;DHT22;22158;59.280;17.806;2023-05-14T08:38:31;20.50;75.50
35668;DHT22;22158;59.280;17.806;2023-05-14T08:40:57;20.60;77.20
35668;DHT22;22158;59.280;17.806;2023-05-14T08:43:32;20.60;76.00
35668;DHT22;22158;59.280;17.806;2023-05-14T08:46:00;20.80;76.90
35668;DHT22;22158;59.280;17.806;2023-05-14T08:48:32;20.90;77.90
35668;DHT22;22158;59.280;17.806;2023-05-14T08:50:59;21.00;77.10
35668;DHT22;22158;59.280;17.806;2023-05-14T08:53:25;21.20;73.10
35668;DHT22;22158;59.280;17.806;2023-05-14T08:55:52;21.30;73.50
35668;DHT22;22158;59.280;17.806;2023-05-14T08:58:18;21.40;74.80
35668;DHT22;22158;59.280;17.806;2023-05-14T09:00:44;21.30;72.80
35668;DHT22;22158;59.280;17.806;2023-05-14T09:03:11;21.30;73.90
35668;DHT22;22158;59.280;17.806;2023-05-14T09:05:37;21.50;73.80
35668;DHT22;22158;59.280;17.806;2023-05-14T09:08:03;21.50;74.80
35668;DHT22;22158;59.280;17.806;2023-05-14T09:10:29;21.70;72.20
35668;DHT22;22158;59.280;17.806;2023-05-14T09:12:54;21.80;73.60
35668;DHT22;22158;59.280;17.806;2023-05-14T09:15:21;21.90;71.10
35668;DHT22;22158;59.280;17.806;2023-05-14T09:17:47;22.00;71.90
35668;DHT22;22158;59.280;17.806;2023-05-14T09:20:13;22.00;71.70
35668;DHT22;22158;59.280;17.806;2023-05-14T09:22:39;22.10;71.10
35668;DHT22;22158;59.280;17.806;2023-05-14T09:25:07;22.10;71.60
35668;DHT22;22158;59.280;17.806;2023-05-14T09:27:34;22.20;71.30
35668;DHT22;22158;59.280;17.806;2023-05-14T09:30:08;22.30;69.80
35668;DHT22;22158;59.280;17.806;2023-05-14T09:32:36;22.40;70.80
35668;DHT22;22158;59.280;17.806;2023-05-14T09:35:31;22.30;70.30
35668;DHT22;22158;59.280;17.806;2023-05-14T09:37:57;22.50;70.20
35668;DHT22;22158;59.280;17.806;2023-05-14T09:40:23;22.60;67.60
35668;DHT22;22158;59.280;17.806;2023-05-14T09:42:48;22.60;66.30
35668;DHT22;22158;59.280;17.806;2023-05-14T09:45:15;22.70;66.80
35668;DHT22;22158;59.280;17.806;2023-05-14T09:47:41;22.80;66.40
35668;DHT22;22158;59.280;17.806;2023-05-14T09:50:07;22.80;66.50
35668;DHT22;22158;59.280;17.806;2023-05-14T09:52:34;22.70;65.30
35668;DHT22;22158;59.280;17.806;2023-05-14T09:55:00;22.80;66.50
35668;DHT22;22158;59.280;17.806;2023-05-14T09:57:25;22.80;66.10
35668;DHT22;22158;59.280;17.806;2023-05-14T09:59:52;23.00;67.50
35668;DHT22;22158;59.280;17.806;2023-05-14T10:04:49;23.20;64.50
35668;DHT22;22158;59.280;17.806;2023-05-14T10:07:20;23.40;65.60
35668;DHT22;22158;59.280;17.806;2023-05-14T10:09:47;23.50;62.00
35668;DHT22;22158;59.280;17.806;2023-05-14T10:12:15;23.60;62.80
35668;DHT22;22158;59.280;17.806;2023-05-14T10:14:47;23.80;63.20
35668;DHT22;22158;59.280;17.806;2023-05-14T10:17:20;24.00;59.10
35668;DHT22;22158;59.280;17.806;2023-05-14T10:19:52;24.00;58.60
35668;DHT22;22158;59.280;17.806;2023-05-14T10:22:22;24.00;56.90
35668;DHT22;22158;59.280;17.806;2023-05-14T10:24:49;23.90;57.80
35668;DHT22;22158;59.280;17.806;2023-05-14T10:27:20;24.00;57.00
35668;DHT22;22158;59.280;17.806;2023-05-14T10:29:53;24.00;57.70
35668;DHT22;22158;59.280;17.806;2023-05-14T10:32:23;24.20;57.10
35668;DHT22;22158;59.280;17.806;2023-05-14T10:34:50;24.30;59.70
35668;DHT22;22158;59.280;17.806;2023-05-14T10:37:23;24.40;56.60
35668;DHT22;22158;59.280;17.806;2023-05-14T10:39:50;24.40;54.70
35668;DHT22;22158;59.280;17.806;2023-05-14T10:42:33;24.50;54.40
35668;DHT22;22158;59.280;17.806;2023-05-14T10:45:12;24.40;55.70
35668;DHT22;22158;59.280;17.806;2023-05-14T10:47:40;24.40;56.80
35668;DHT22;22158;59.280;17.806;2023-05-14T10:50:09;24.60;55.10
35668;DHT22;22158;59.280;17.806;2023-05-14T10:52:35;24.70;55.30
35668;DHT22;22158;59.280;17.806;2023-05-14T10:55:05;24.70;53.50
35668;DHT22;22158;59.280;17.806;2023-05-14T10:57:33;24.70;55.70
35668;DHT22;22158;59.280;17.806;2023-05-14T11:00:00;24.80;54.20
35668;DHT22;22158;59.280;17.806;2023-05-14T11:02:36;24.80;53.30
35668;DHT22;22158;59.280;17.806;2023-05-14T11:05:13;24.90;53.50
35668;DHT22;22158;59.280;17.806;2023-05-14T11:07:46;24.90;54.30
35668;DHT22;22158;59.280;17.806;2023-05-14T11:10:16;25.20;54.90
35668;DHT22;22158;59.280;17.806;2023-05-14T11:12:44;25.10;54.20
35668;DHT22;22158;59.280;17.806;2023-05-14T11:15:15;25.20;54.80
35668;DHT22;22158;59.280;17.806;2023-05-14T11:17:41;25.50;52.00
35668;DHT22;22158;59.280;17.806;2023-05-14T11:20:07;25.60;54.00
35668;DHT22;22158;59.280;17.806;2023-05-14T11:22:35;25.80;53.40
35668;DHT22;22158;59.280;17.806;2023-05-14T11:25:01;25.90;53.10
35668;DHT22;22158;59.280;17.806;2023-05-14T11:27:26;26.00;53.30
35668;DHT22;22158;59.280;17.806;2023-05-14T11:29:52;26.00;51.80
35668;DHT22;22158;59.280;17.806;2023-05-14T11:32:20;25.70;51.50
35668;DHT22;22158;59.280;17.806;2023-05-14T11:34:46;25.40;52.50
35668;DHT22;22158;59.280;17.806;2023-05-14T11:37:13;25.60;51.50
35668;DHT22;22158;59.280;17.806;2023-05-14T11:39:48;25.90;52.60
35668;DHT22;22158;59.280;17.806;2023-05-14T11:42:14;25.90;52.00
35668;DHT22;22158;59.280;17.806;2023-05-14T11:44:44;26.00;50.30
35668;DHT22;22158;59.280;17.806;2023-05-14T11:47:11;26.10;50.10
35668;DHT22;22158;59.280;17.806;2023-05-14T11:49:36;26.30;50.50
35668;DHT22;22158;59.280;17.806;2023-05-14T11:52:07;26.60;50.60
35668;DHT22;22158;59.280;17.806;2023-05-14T11:54:35;26.70;49.60
35668;DHT22;22158;59.280;17.806;2023-05-14T11:57:06;26.70;49.30
35668;DHT22;22158;59.280;17.806;2023-05-14T11:59:32;26.60;49.30
35668;DHT22;22158;59.280;17.806;2023-05-14T12:01:58;26.00;48.30
35668;DHT22;22158;59.280;17.806;2023-05-14T12:04:23;26.10;48.90
35668;DHT22;22158;59.280;17.806;2023-05-14T12:06:51;26.10;47.30
35668;DHT22;22158;59.280;17.806;2023-05-14T12:09:18;26.20;47.90
35668;DHT22;22158;59.280;17.806;2023-05-14T12:11:45;26.20;48.20
35668;DHT22;22158;59.280;17.806;2023-05-14T12:14:21;26.20;48.70
35668;DHT22;22158;59.280;17.806;2023-05-14T12:16:48;26.30;47.60
35668;DHT22;22158;59.280;17.806;2023-05-14T12:19:16;26.20;47.10
35668;DHT22;22158;59.280;17.806;2023-05-14T12:21:43;26.20;47.10
35668;DHT22;22158;59.280;17.806;2023-05-14T12:24:16;26.20;46.70
35668;DHT22;22158;59.280;17.806;2023-05-14T12:26:46;26.20;47.60
35668;DHT22;22158;59.280;17.806;2023-05-14T12:29:13;26.10;47.80
35668;DHT22;22158;59.280;17.806;2023-05-14T12:31:47;26.30;47.50
35668;DHT22;22158;59.280;17.806;2023-05-14T12:34:14;26.60;48.40
35668;DHT22;22158;59.280;17.806;2023-05-14T12:36:40;26.70;47.00
35668;DHT22;22158;59.280;17.806;2023-05-14T12:39:06;26.80;45.70
35668;DHT22;22158;59.280;17.806;2023-05-14T12:41:32;26.80;47.40
35668;DHT22;22158;59.280;17.806;2023-05-14T12:43:59;26.80;44.30
35668;DHT22;22158;59.280;17.806;2023-05-14T12:46:26;26.70;44.70
35668;DHT22;22158;59.280;17.806;2023-05-14T12:48:53;26.60;47.20
35668;DHT22;22158;59.280;17.806;2023-05-14T12:51:18;26.60;44.10
35668;DHT22;22158;59.280;17.806;2023-05-14T12:53:44;26.50;45.00
35668;DHT22;22158;59.280;17.806;2023-05-14T12:56:11;26.50;43.90
35668;DHT22;22158;59.280;17.806;2023-05-14T12:58:36;26.50;43.60
35668;DHT22;22158;59.280;17.806;2023-05-14T13:01:03;26.50;43.90
35668;DHT22;22158;59.280;17.806;2023-05-14T13:03:28;26.30;44.70
35668;DHT22;22158;59.280;17.806;2023-05-14T13:05:54;26.20;43.40
35668;DHT22;22158;59.280;17.806;2023-05-14T13:08:21;26.30;44.20
35668;DHT22;22158;59.280;17.806;2023-05-14T13:10:52;26.70;44.20
35668;DHT22;22158;59.280;17.806;2023-05-14T13:13:18;26.70;43.70
35668;DHT22;22158;59.280;17.806;2023-05-14T13:15:44;26.90;43.30
35668;DHT22;22158;59.280;17.806;2023-05-14T13:18:14;26.90;43.30
35668;DHT22;22158;59.280;17.806;2023-05-14T13:20:40;26.90;41.90
35668;DHT22;22158;59.280;17.806;2023-05-14T13:23:05;27.00;43.10
35668;DHT22;22158;59.280;17.806;2023-05-14T13:25:31;27.00;42.50
35668;DHT22;22158;59.280;17.806;2023-05-14T13:27:57;26.60;41.70
35668;DHT22;22158;59.280;17.806;2023-05-14T13:30:22;26.30;43.30
35668;DHT22;22158;59.280;17.806;2023-05-14T13:32:48;26.30;42.80
35668;DHT22;22158;59.280;17.806;2023-05-14T13:35:14;26.40;44.10
35668;DHT22;22158;59.280;17.806;2023-05-14T13:37:43;26.60;43.80
35668;DHT22;22158;59.280;17.806;2023-05-14T13:40:09;26.90;43.80
35668;DHT22;22158;59.280;17.806;2023-05-14T13:42:35;27.00;43.00
35668;DHT22;22158;59.280;17.806;2023-05-14T13:45:01;27.20;44.10
35668;DHT22;22158;59.280;17.806;2023-05-14T13:47:27;27.30;45.40
35668;DHT22;22158;59.280;17.806;2023-05-14T13:49:55;27.50;45.30
35668;DHT22;22158;59.280;17.806;2023-05-14T13:52:21;27.60;43.10
35668;DHT22;22158;59.280;17.806;2023-05-14T13:54:46;27.20;40.70
35668;DHT22;22158;59.280;17.806;2023-05-14T13:57:12;27.10;44.10
35668;DHT22;22158;59.280;17.806;2023-05-14T13:59:38;27.20;44.70
35668;DHT22;22158;59.280;17.806;2023-05-14T14:02:04;27.50;41.80
35668;DHT22;22158;59.280;17.806;2023-05-14T14:04:30;27.40;42.20
35668;DHT22;22158;59.280;17.806;2023-05-14T14:06:56;27.40;41.50
35668;DHT22;22158;59.280;17.806;2023-05-14T14:09:22;27.30;41.50
35668;DHT22;22158;59.280;17.806;2023-05-14T14:11:49;27.10;41.70
35668;DHT22;22158;59.280;17.806;2023-05-14T14:14:15;27.00;41.50
35668;DHT22;22158;59.280;17.806;2023-05-14T14:16:41;26.90;43.90
35668;DHT22;22158;59.280;17.806;2023-05-14T14:19:07;27.10;42.90
35668;DHT22;22158;59.280;17.806;2023-05-14T14:21:32;27.10;43.10
35668;DHT22;22158;59.280;17.806;2023-05-14T14:23:59;27.30;44.30
35668;DHT22;22158;59.280;17.806;2023-05-14T14:26:25;27.60;42.00
35668;DHT22;22158;59.280;17.806;2023-05-14T14:28:52;27.60;41.80
35668;DHT22;22158;59.280;17.806;2023-05-14T14:31:18;27.50;42.40
35668;DHT22;22158;59.280;17.806;2023-05-14T14:33:44;27.50;42.60
35668;DHT22;22158;59.280;17.806;2023-05-14T14:36:10;27.50;43.00
35668;DHT22;22158;59.280;17.806;2023-05-14T14:38:35;27.80;42.30
35668;DHT22;22158;59.280;17.806;2023-05-14T14:41:01;28.00;40.70
35668;DHT22;22158;59.280;17.806;2023-05-14T14:43:31;27.50;40.60
35668;DHT22;22158;59.280;17.806;2023-05-14T14:45:57;27.20;41.20
35668;DHT22;22158;59.280;17.806;2023-05-14T14:48:33;27.00;41.10
35668;DHT22;22158;59.280;17.806;2023-05-14T14:51:02;26.80;41.00
35668;DHT22;22158;59.280;17.806;2023-05-14T14:53:29;26.80;42.30
35668;DHT22;22158;59.280;17.806;2023-05-14T14:55:55;27.10;42.10
35668;DHT22;22158;59.280;17.806;2023-05-14T14:58:22;27.20;40.90
35668;DHT22;22158;59.280;17.806;2023-05-14T15:00:53;27.00;39.70
35668;DHT22;22158;59.280;17.806;2023-05-14T15:03:19;26.90;40.40
35668;DHT22;22158;59.280;17.806;2023-05-14T15:05:45;27.00;41.40
35668;DHT22;22158;59.280;17.806;2023-05-14T15:08:11;27.00;40.90
35668;DHT22;22158;59.280;17.806;2023-05-14T15:10:37;27.10;41.80
35668;DHT22;22158;59.280;17.806;2023-05-14T15:13:04;27.30;42.70
35668;DHT22;22158;59.280;17.806;2023-05-14T15:15:34;27.20;40.20
35668;DHT22;22158;59.280;17.806;2023-05-14T15:18:00;27.00;41.70
35668;DHT22;22158;59.280;17.806;2023-05-14T15:20:26;27.10;40.30
35668;DHT22;22158;59.280;17.806;2023-05-14T15:22:52;27.10;40.70
35668;DHT22;22158;59.280;17.806;2023-05-14T15:25:22;27.00;41.20
35668;DHT22;22158;59.280;17.806;2023-05-14T15:27:48;27.10;40.00
35668;DHT22;22158;59.280;17.806;2023-05-14T15:30:14;27.10;40.90
35668;DHT22;22158;59.280;17.806;2023-05-14T15:32:40;27.20;40.70
35668;DHT22;22158;59.280;17.806;2023-05-14T15:35:06;26.80;39.00
35668;DHT22;22158;59.280;17.806;2023-05-14T15:37:36;27.00;41.50
35668;DHT22;22158;59.280;17.806;2023-05-14T15:40:02;27.20;40.80
35668;DHT22;22158;59.280;17.806;2023-05-14T15:42:28;27.10;38.90
35668;DHT22;22158;59.280;17.806;2023-05-14T15:44:54;26.80;39.80
35668;DHT22;22158;59.280;17.806;2023-05-14T15:47:19;26.80;40.50
35668;DHT22;22158;59.280;17.806;2023-05-14T15:49:45;26.70;40.90
35668;DHT22;22158;59.280;17.806;2023-05-14T15:52:11;26.70;39.30
35668;DHT22;22158;59.280;17.806;2023-05-14T15:54:36;26.30;39.20
35668;DHT22;22158;59.280;17.806;2023-05-14T15:57:02;26.20;40.90
35668;DHT22;22158;59.280;17.806;2023-05-14T15:59:27;26.10;39.00
35668;DHT22;22158;59.280;17.806;2023-05-14T16:01:54;25.60;39.50
35668;DHT22;22158;59.280;17.806;2023-05-14T16:04:20;25.70;41.40
35668;DHT22;22158;59.280;17.806;2023-05-14T16:06:47;25.80;40.90
35668;DHT22;22158;59.280;17.806;2023-05-14T16:09:12;25.90;39.70
35668;DHT22;22158;59.280;17.806;2023-05-14T16:11:38;25.80;39.40
35668;DHT22;22158;59.280;17.806;2023-05-14T16:14:03;25.70;40.30
35668;DHT22;22158;59.280;17.806;2023-05-14T16:16:29;25.60;40.90
35668;DHT22;22158;59.280;17.806;2023-05-14T16:18:55;25.60;40.00
35668;DHT22;22158;59.280;17.806;2023-05-14T16:21:20;25.30;40.20
35668;DHT22;22158;59.280;17.806;2023-05-14T16:23:46;25.30;41.60
35668;DHT22;22158;59.280;17.806;2023-05-14T16:26:12;25.30;41.50
35668;DHT22;22158;59.280;17.806;2023-05-14T16:28:37;25.30;40.90
35668;DHT22;22158;59.280;17.806;2023-05-14T16:31:05;25.20;41.90
35668;DHT22;22158;59.280;17.806;2023-05-14T16:33:31;24.90;40.80
35668;DHT22;22158;59.280;17.806;2023-05-14T16:35:57;24.70;41.90
35668;DHT22;22158;59.280;17.806;2023-05-14T16:38:22;24.60;41.90
35668;DHT22;22158;59.280;17.806;2023-05-14T16:40:48;24.50;41.40
35668;DHT22;22158;59.280;17.806;2023-05-14T16:43:13;24.40;41.60
35668;DHT22;22158;59.280;17.806;2023-05-14T16:45:39;24.10;40.70
35668;DHT22;22158;59.280;17.806;2023-05-14T16:48:05;24.00;42.00
35668;DHT22;22158;59.280;17.806;2023-05-14T16:50:31;23.80;43.40
35668;DHT22;22158;59.280;17.806;2023-05-14T16:52:56;23.60;42.00
35668;DHT22;22158;59.280;17.806;2023-05-14T16:55:22;23.40;42.60
35668;DHT22;22158;59.280;17.806;2023-05-14T16:57:48;23.20;43.70
35668;DHT22;22158;59.280;17.806;2023-05-14T17:00:13;23.00;43.40
35668;DHT22;22158;59.280;17.806;2023-05-14T17:02:39;22.90;43.90
35668;DHT22;22158;59.280;17.806;2023-05-14T17:05:06;22.70;44.30
35668;DHT22;22158;59.280;17.806;2023-05-14T17:07:32;22.60;44.90
35668;DHT22;22158;59.280;17.806;2023-05-14T17:09:57;22.60;44.70
35668;DHT22;22158;59.280;17.806;2023-05-14T17:12:25;22.50;43.40
35668;DHT22;22158;59.280;17.806;2023-05-14T17:14:51;22.30;45.90
35668;DHT22;22158;59.280;17.806;2023-05-14T17:17:17;22.20;44.30
35668;DHT22;22158;59.280;17.806;2023-05-14T17:19:43;22.10;45.60
35668;DHT22;22158;59.280;17.806;2023-05-14T17:22:10;22.00;46.10
35668;DHT22;22158;59.280;17.806;2023-05-14T17:24:35;22.00;45.90
35668;DHT22;22158;59.280;17.806;2023-05-14T17:27:04;22.00;45.80
35668;DHT22;22158;59.280;17.806;2023-05-14T17:29:30;22.00;45.60
35668;DHT22;22158;59.280;17.806;2023-05-14T17:31:55;21.80;46.20
35668;DHT22;22158;59.280;17.806;2023-05-14T17:34:21;21.70;46.80
35668;DHT22;22158;59.280;17.806;2023-05-14T17:36:47;21.60;46.00
35668;DHT22;22158;59.280;17.806;2023-05-14T17:39:12;21.60;46.60
35668;DHT22;22158;59.280;17.806;2023-05-14T17:41:38;21.40;46.60
35668;DHT22;22158;59.280;17.806;2023-05-14T17:44:03;21.40;46.70
35668;DHT22;22158;59.280;17.806;2023-05-14T17:46:29;21.30;47.90
35668;DHT22;22158;59.280;17.806;2023-05-14T17:48:55;21.20;47.40
35668;DHT22;22158;59.280;17.806;2023-05-14T17:51:22;21.20;48.80
35668;DHT22;22158;59.280;17.806;2023-05-14T17:53:48;21.20;47.50
35668;DHT22;22158;59.280;17.806;2023-05-14T17:56:13;21.10;48.40
35668;DHT22;22158;59.280;17.806;2023-05-14T17:58:41;20.90;48.30
35668;DHT22;22158;59.280;17.806;2023-05-14T18:01:07;20.90;48.00
35668;DHT22;22158;59.280;17.806;2023-05-14T18:03:33;20.90;46.80
35668;DHT22;22158;59.280;17.806;2023-05-14T18:05:58;20.70;48.10
35668;DHT22;22158;59.280;17.806;2023-05-14T18:08:24;20.50;48.60
35668;DHT22;22158;59.280;17.806;2023-05-14T18:10:50;20.40;49.40
35668;DHT22;22158;59.280;17.806;2023-05-14T18:13:16;20.30;49.50
35668;DHT22;22158;59.280;17.806;2023-05-14T18:15:41;20.10;49.20
35668;DHT22;22158;59.280;17.806;2023-05-14T18:18:07;20.20;48.60
35668;DHT22;22158;59.280;17.806;2023-05-14T18:20:32;20.00;49.10
35668;DHT22;22158;59.280;17.806;2023-05-14T18:22:58;19.80;49.00
35668;DHT22;22158;59.280;17.806;2023-05-14T18:25:24;19.70;49.30
35668;DHT22;22158;59.280;17.806;2023-05-14T18:27:50;19.60;49.90
35668;DHT22;22158;59.280;17.806;2023-05-14T18:30:15;19.60;49.70
35668;DHT22;22158;59.280;17.806;2023-05-14T18:32:42;19.50;50.00
35668;DHT22;22158;59.280;17.806;2023-05-14T18:35:09;19.40;49.70
35668;DHT22;22158;59.280;17.806;2023-05-14T18:37:34;19.30;49.60
35668;DHT22;22158;59.280;17.806;2023-05-14T18:40:01;19.20;51.20
35668;DHT22;22158;59.280;17.806;2023-05-14T18:42:27;19.10;50.50
35668;DHT22;22158;59.280;17.806;2023-05-14T18:44:52;19.00;50.80
35668;DHT22;22158;59.280;17.806;2023-05-14T18:47:18;18.90;50.60
35668;DHT22;22158;59.280;17.806;2023-05-14T18:49:43;18.80;51.10
35668;DHT22;22158;59.280;17.806;2023-05-14T18:52:09;18.70;50.50
35668;DHT22;22158;59.280;17.806;2023-05-14T18:54:34;18.60;50.90
35668;DHT22;22158;59.280;17.806;2023-05-14T18:57:00;18.50;50.80
35668;DHT22;22158;59.280;17.806;2023-05-14T18:59:26;18.40;51.10
35668;DHT22;22158;59.280;17.806;2023-05-14T19:01:51;18.40;51.80
35668;DHT22;22158;59.280;17.806;2023-05-14T19:04:17;18.30;52.10
35668;DHT22;22158;59.280;17.806;2023-05-14T19:06:43;18.20;52.50
35668;DHT22;22158;59.280;17.806;2023-05-14T19:09:08;18.00;52.00
35668;DHT22;22158;59.280;17.806;2023-05-14T19:11:35;17.90;52.40
35668;DHT22;22158;59.280;17.806;2023-05-14T19:14:00;17.80;52.40
35668;DHT22;22158;59.280;17.806;2023-05-14T19:16:26;17.70;53.10
35668;DHT22;22158;59.280;17.806;2023-05-14T19:18:52;17.60;53.60
35668;DHT22;22158;59.280;17.806;2023-05-14T19:21:18;17.50;53.50
35668;DHT22;22158;59.280;17.806;2023-05-14T19:23:43;17.50;53.90
35668;DHT22;22158;59.280;17.806;2023-05-14T19:26:09;17.40;53.90
35668;DHT22;22158;59.280;17.806;2023-05-14T19:28:35;17.30;54.60
35668;DHT22;22158;59.280;17.806;2023-05-14T19:31:02;17.10;54.20
35668;DHT22;22158;59.280;17.806;2023-05-14T19:33:28;17.10;54.50
35668;DHT22;22158;59.280;17.806;2023-05-14T19:35:54;17.00;54.90
35668;DHT22;22158;59.280;17.806;2023-05-14T19:38:20;16.90;54.90
35668;DHT22;22158;59.280;17.806;2023-05-14T19:40:46;16.80;55.10
35668;DHT22;22158;59.280;17.806;2023-05-14T19:43:12;16.70;55.50
35668;DHT22;22158;59.280;17.806;2023-05-14T19:45:38;16.60;55.20
35668;DHT22;22158;59.280;17.806;2023-05-14T19:48:04;16.50;55.70
35668;DHT22;22158;59.280;17.806;2023-05-14T19:50:30;16.40;55.30
35668;DHT22;22158;59.280;17.806;2023-05-14T19:52:56;16.40;55.70
35668;DHT22;22158;59.280;17.806;2023-05-14T19:55:22;16.30;56.00
35668;DHT22;22158;59.280;17.806;2023-05-14T19:57:48;16.20;56.20
35668;DHT22;22158;59.280;17.806;2023-05-14T20:00:13;16.20;56.50
35668;DHT22;22158;59.280;17.806;2023-05-14T20:02:39;16.10;56.30
35668;DHT22;22158;59.280;17.806;2023-05-14T20:05:06;16.10;56.50
35668;DHT22;22158;59.280;17.806;2023-05-14T20:07:36;16.00;56.80
35668;DHT22;22158;59.280;17.806;2023-05-14T20:10:02;15.90;56.70
35668;DHT22;22158;59.280;17.806;2023-05-14T20:12:27;15.80;57.20
35668;DHT22;22158;59.280;17.806;2023-05-14T20:14:53;15.80;56.70